Time;durP1;ratioP1;P1;durP2;ratioP2;P2;SDS_P1;SDS_P2;PMS_P1;PMS_P2;Temp;Humidity;BMP_temperature;BMP_pressure;BME280_temperature;BME280_humidity;BME280_pressure;Samples;Min_cycle;Max_cycle;Signal;HPM_P1;HPM_P2
2021/08/03 00:01:04;;;;;;;5.43;3.70;;;;;;;;;;5009100;28;20048;-78
2021/08/03 00:03:34;;;;;;;5.35;3.80;;;;;;;;;;5024519;28;20044;-79
2021/08/03 00:06:09;;;;;;;6.55;3.38;;;;;;;;;;5028728;28;20048;-79
2021/08/03 00:08:38;;;;;;;6.68;3.50;;;;;;;;;;5045525;28;20480;-79
2021/08/03 00:11:05;;;;;;;6.20;3.97;;;;;;;;;;5023498;28;20035;-79
2021/08/03 00:13:33;;;;;;;7.28;3.40;;;;;;;;;;5027663;28;20540;-79
2021/08/03 00:16:02;;;;;;;6.40;4.45;;;;;;;;;;5032805;28;20476;-79
2021/08/03 00:18:30;;;;;;;6.45;3.80;;;;;;;;;;5005743;28;20029;-79
2021/08/03 00:20:57;;;;;;;7.18;3.75;;;;;;;;;;5029387;28;20041;-79
2021/08/03 00:23:23;;;;;;;5.30;3.75;;;;;;;;;;5019602;28;20037;-79
2021/08/03 00:25:53;;;;;;;6.43;3.67;;;;;;;;;;5029135;28;20124;-79
2021/08/03 00:28:19;;;;;;;8.25;3.47;;;;;;;;;;5027530;28;20480;-79
2021/08/03 00:30:45;;;;;;;5.65;3.72;;;;;;;;;;5028004;28;20381;-78
2021/08/03 00:33:12;;;;;;;5.82;3.88;;;;;;;;;;5028655;28;20121;-78
2021/08/03 00:35:37;;;;;;;5.90;3.60;;;;;;;;;;5029772;28;20033;-79
2021/08/03 00:38:03;;;;;;;5.63;3.53;;;;;;;;;;5030477;28;20540;-79
2021/08/03 00:40:31;;;;;;;7.00;3.53;;;;;;;;;;5031653;28;20030;-79
2021/08/03 00:42:56;;;;;;;6.72;3.50;;;;;;;;;;5029212;28;20058;-78
2021/08/03 00:45:22;;;;;;;5.78;3.70;;;;;;;;;;5029011;28;20025;-79
2021/08/03 00:47:47;;;;;;;6.40;3.80;;;;;;;;;;5013862;28;20128;-78
2021/08/03 00:50:13;;;;;;;5.15;3.75;;;;;;;;;;5026647;28;20025;-79
2021/08/03 00:52:42;;;;;;;6.45;3.90;;;;;;;;;;5014657;28;20488;-79
2021/08/03 00:55:09;;;;;;;6.78;3.85;;;;;;;;;;5031035;28;20140;-79
2021/08/03 00:57:34;;;;;;;5.28;3.65;;;;;;;;;;5030197;28;20041;-78
2021/08/03 01:00:00;;;;;;;6.20;3.80;;;;;;;;;;5013912;28;20120;-79
2021/08/03 01:02:25;;;;;;;4.88;3.90;;;;;;;;;;5032657;28;20029;-79
2021/08/03 01:04:51;;;;;;;6.30;3.70;;;;;;;;;;5028345;28;20494;-79
2021/08/03 01:07:27;;;;;;;7.03;3.72;;;;;;;;;;5014998;28;20034;-79
2021/08/03 01:10:31;;;;;;;5.07;3.45;;;;;;;;;;5032525;28;20052;-79
2021/08/03 01:13:07;;;;;;;5.82;4.07;;;;;;;;;;5016780;28;20033;-78
2021/08/03 01:15:51;;;;;;;6.43;4.28;;;;;;;;;;5030409;28;20465;-79
2021/08/03 01:18:26;;;;;;;;;;;;;;;;;;5031578;28;20444;-79
2021/08/03 01:21:04;;;;;;;5.00;3.80;;;;;;;;;;5031590;28;20007;-79
2021/08/03 01:24:03;;;;;;;6.43;4.47;;;;;;;;;;5027094;28;20029;-79
2021/08/03 01:27:10;;;;;;;6.65;4.60;;;;;;;;;;5032243;28;20036;-79
2021/08/03 01:29:36;;;;;;;5.45;4.20;;;;;;;;;;5029190;28;20093;-79
2021/08/03 01:32:05;;;;;;;8.77;4.63;;;;;;;;;;5032642;28;20508;-79
2021/08/03 01:34:32;;;;;;;6.78;4.32;;;;;;;;;;5027775;28;20021;-79
2021/08/03 01:36:59;;;;;;;6.72;4.15;;;;;;;;;;5031562;28;20029;-79
2021/08/03 01:39:35;;;;;;;5.68;3.95;;;;;;;;;;5011292;28;20037;-79
2021/08/03 01:42:04;;;;;;;6.13;4.15;;;;;;;;;;5029157;28;20030;-79
2021/08/03 01:44:31;;;;;;;6.68;4.28;;;;;;;;;;5029325;28;20342;-79
2021/08/03 01:46:57;;;;;;;5.90;4.53;;;;;;;;;;5026657;28;20052;-79
2021/08/03 01:49:23;;;;;;;5.82;4.03;;;;;;;;;;5006025;28;20113;-79
2021/08/03 01:51:50;;;;;;;5.90;4.05;;;;;;;;;;5034592;28;20060;-78
2021/08/03 01:54:16;;;;;;;5.43;4.05;;;;;;;;;;5026084;28;20061;-79
2021/08/03 01:56:43;;;;;;;6.45;4.25;;;;;;;;;;5029920;28;20029;-79
2021/08/03 01:59:10;;;;;;;6.60;4.10;;;;;;;;;;5026334;28;20032;-78
2021/08/03 02:01:36;;;;;;;7.07;4.30;;;;;;;;;;5021826;28;20045;-79
2021/08/03 02:04:03;;;;;;;5.63;3.78;;;;;;;;;;5028430;28;20032;-79
2021/08/03 02:06:29;;;;;;;5.85;3.95;;;;;;;;;;5007610;28;20133;-79
2021/08/03 02:08:57;;;;;;;5.97;4.20;;;;;;;;;;5026126;28;20034;-79
2021/08/03 02:11:34;;;;;;;5.80;4.35;;;;;;;;;;5027914;28;20531;-79
2021/08/03 02:14:00;;;;;;;7.63;4.00;;;;;;;;;;5032893;28;20032;-79
2021/08/03 02:16:26;;;;;;;5.90;3.80;;;;;;;;;;5025152;28;20033;-79
2021/08/03 02:18:52;;;;;;;7.30;4.15;;;;;;;;;;5029571;28;20112;-78
2021/08/03 02:21:19;;;;;;;6.95;4.10;;;;;;;;;;5030205;28;20037;-79
2021/08/03 02:23:45;;;;;;;8.98;4.10;;;;;;;;;;5029356;28;20493;-79
2021/08/03 02:26:11;;;;;;;8.75;4.10;;;;;;;;;;5024796;28;20029;-79
2021/08/03 02:28:37;;;;;;;6.07;4.10;;;;;;;;;;5009485;28;20026;-79
2021/08/03 02:31:14;;;;;;;6.85;3.65;;;;;;;;;;5026198;28;20084;-79
2021/08/03 02:33:50;;;;;;;6.10;3.80;;;;;;;;;;5025553;28;20105;-79
2021/08/03 02:36:20;;;;;;;7.40;3.88;;;;;;;;;;5030319;28;20025;-79
2021/08/03 02:38:50;;;;;;;5.78;3.25;;;;;;;;;;5029678;28;20026;-79
2021/08/03 02:41:17;;;;;;;7.15;4.07;;;;;;;;;;5031930;28;20017;-79
2021/08/03 02:43:46;;;;;;;7.57;3.80;;;;;;;;;;5034241;28;20083;-79
2021/08/03 02:46:14;;;;;;;5.90;3.95;;;;;;;;;;5028724;28;20026;-79
2021/08/03 02:48:41;;;;;;;5.50;3.72;;;;;;;;;;5026380;28;20462;-79
2021/08/03 02:51:07;;;;;;;8.23;3.90;;;;;;;;;;5021361;28;20026;-79
2021/08/03 02:53:38;;;;;;;7.30;4.57;;;;;;;;;;5029498;28;20033;-79
2021/08/03 02:56:10;;;;;;;6.28;3.72;;;;;;;;;;5028314;28;20041;-79
2021/08/03 02:58:42;;;;;;;6.38;3.63;;;;;;;;;;5024732;28;20113;-78
2021/08/03 03:01:10;;;;;;;8.07;3.63;;;;;;;;;;5029012;28;20026;-79
2021/08/03 03:03:39;;;;;;;6.47;3.67;;;;;;;;;;5024689;28;20033;-79
2021/08/03 03:06:07;;;;;;;5.53;3.22;;;;;;;;;;5033723;28;20074;-79
2021/08/03 03:08:34;;;;;;;5.40;3.50;;;;;;;;;;5026182;28;20124;-78
2021/08/03 03:11:02;;;;;;;10.23;3.75;;;;;;;;;;5032162;28;20029;-79
2021/08/03 03:13:34;;;;;;;5.40;3.17;;;;;;;;;;5029453;28;20017;-79
2021/08/03 03:16:01;;;;;;;5.15;3.40;;;;;;;;;;5028365;28;20162;-79
2021/08/03 03:18:27;;;;;;;4.57;3.13;;;;;;;;;;5028697;28;20180;-79
2021/08/03 03:20:53;;;;;;;4.85;3.10;;;;;;;;;;5016110;28;20116;-79
2021/08/03 03:23:22;;;;;;;5.43;3.10;;;;;;;;;;5025796;28;20527;-79
2021/08/03 03:25:50;;;;;;;6.28;2.90;;;;;;;;;;5007964;28;20092;-79
2021/08/03 03:28:22;;;;;;;6.35;3.30;;;;;;;;;;5020129;28;20029;-79
2021/08/03 03:30:49;;;;;;;5.00;3.30;;;;;;;;;;5027924;28;20036;-79
2021/08/03 03:33:15;;;;;;;5.45;3.40;;;;;;;;;;5031097;28;20485;-79
2021/08/03 03:35:41;;;;;;;4.30;2.85;;;;;;;;;;5027387;28;20036;-79
2021/08/03 03:38:07;;;;;;;6.40;3.13;;;;;;;;;;5025518;28;20091;-79
2021/08/03 03:40:34;;;;;;;4.93;2.90;;;;;;;;;;5022678;28;20033;-79
2021/08/03 03:43:01;;;;;;;8.55;3.30;;;;;;;;;;5026528;28;20033;-79
2021/08/03 03:45:27;;;;;;;5.95;2.95;;;;;;;;;;5027083;28;20470;-79
2021/08/03 03:48:01;;;;;;;6.80;3.38;;;;;;;;;;5027037;28;20064;-79
2021/08/03 03:50:43;;;;;;;5.80;3.22;;;;;;;;;;5023783;28;20043;-79
2021/08/03 03:53:13;;;;;;;7.07;3.55;;;;;;;;;;5026975;28;20025;-79
2021/08/03 03:55:47;;;;;;;5.75;3.28;;;;;;;;;;5024248;28;20154;-79
2021/08/03 03:58:13;;;;;;;6.07;3.28;;;;;;;;;;5027720;28;20025;-79
2021/08/03 04:00:39;;;;;;;5.07;3.40;;;;;;;;;;5028246;28;20030;-79
2021/08/03 04:03:05;;;;;;;4.95;3.15;;;;;;;;;;5028393;28;20029;-79
2021/08/03 04:05:31;;;;;;;6.07;3.03;;;;;;;;;;5028521;28;20025;-79
2021/08/03 04:07:57;;;;;;;4.47;2.80;;;;;;;;;;5010118;28;20036;-78
2021/08/03 04:10:37;;;;;;;6.70;3.10;;;;;;;;;;5033016;28;20586;-79
2021/08/03 04:13:03;;;;;;;4.10;3.08;;;;;;;;;;5028299;28;20025;-79
2021/08/03 04:15:29;;;;;;;6.22;3.30;;;;;;;;;;5027776;28;20075;-79
2021/08/03 04:17:55;;;;;;;4.28;2.92;;;;;;;;;;5028738;28;20108;-79
2021/08/03 04:20:20;;;;;;;4.88;3.00;;;;;;;;;;5032068;28;20024;-79
2021/08/03 04:22:46;;;;;;;4.53;3.00;;;;;;;;;;5023803;28;20511;-79
2021/08/03 04:25:12;;;;;;;6.50;3.00;;;;;;;;;;5027494;28;20032;-79
2021/08/03 04:27:38;;;;;;;5.20;2.80;;;;;;;;;;5023754;28;20032;-79
2021/08/03 04:30:05;;;;;;;4.35;2.80;;;;;;;;;;5027369;28;20037;-79
2021/08/03 04:32:30;;;;;;;4.28;3.03;;;;;;;;;;5022790;28;20033;-79
2021/08/03 04:34:56;;;;;;;5.57;3.15;;;;;;;;;;5025797;28;20152;-79
2021/08/03 04:37:22;;;;;;;6.00;2.75;;;;;;;;;;5027187;28;20041;-79
2021/08/03 04:39:47;;;;;;;6.22;2.90;;;;;;;;;;5026977;28;20029;-79
2021/08/03 04:42:13;;;;;;;4.30;2.92;;;;;;;;;;5009592;28;20051;-79
2021/08/03 04:44:39;;;;;;;5.30;2.97;;;;;;;;;;5020847;28;20026;-79
2021/08/03 04:47:04;;;;;;;4.40;2.90;;;;;;;;;;5023056;28;20532;-79
2021/08/03 04:49:31;;;;;;;5.93;3.22;;;;;;;;;;5022504;28;20120;-79
2021/08/03 04:51:56;;;;;;;5.22;3.10;;;;;;;;;;5024097;28;20029;-79
2021/08/03 04:54:22;;;;;;;4.85;2.92;;;;;;;;;;5023637;28;20065;-79
2021/08/03 04:56:47;;;;;;;6.35;3.25;;;;;;;;;;5008676;28;20041;-79
2021/08/03 04:59:12;;;;;;;4.38;2.90;;;;;;;;;;5007216;28;20030;-79
2021/08/03 05:01:38;;;;;;;6.10;3.05;;;;;;;;;;5025804;28;20065;-79
2021/08/03 05:04:03;;;;;;;6.57;3.33;;;;;;;;;;5030214;28;20413;-79
2021/08/03 05:06:29;;;;;;;7.72;3.28;;;;;;;;;;5027986;28;20040;-78
2021/08/03 05:08:54;;;;;;;5.20;2.90;;;;;;;;;;5022883;28;20483;-79
2021/08/03 05:11:19;;;;;;;5.35;3.10;;;;;;;;;;5027335;28;20033;-79
2021/08/03 05:13:45;;;;;;;6.80;3.38;;;;;;;;;;5023454;28;20037;-79
2021/08/03 05:16:10;;;;;;;6.20;3.30;;;;;;;;;;5024248;28;20041;-79
2021/08/03 05:18:36;;;;;;;5.75;3.35;;;;;;;;;;5010732;28;20115;-79
2021/08/03 05:21:01;;;;;;;6.25;3.33;;;;;;;;;;5031928;28;20052;-79
2021/08/03 05:23:26;;;;;;;6.50;3.40;;;;;;;;;;5026878;28;20107;-79
2021/08/03 05:25:52;;;;;;;6.68;3.90;;;;;;;;;;5027446;28;20026;-79
2021/08/03 05:28:17;;;;;;;6.88;3.83;;;;;;;;;;5012275;28;20681;-78
2021/08/03 05:30:44;;;;;;;12.48;5.63;;;;;;;;;;5025786;28;20091;-78
2021/08/03 05:33:10;;;;;;;8.35;5.47;;;;;;;;;;5009218;28;20461;-79
2021/08/03 05:35:36;;;;;;;10.48;7.07;;;;;;;;;;5026454;28;20083;-79
2021/08/03 05:38:02;;;;;;;10.20;7.20;;;;;;;;;;5023708;28;20123;-79
2021/08/03 05:40:27;;;;;;;12.02;8.70;;;;;;;;;;5028357;28;20057;-79
2021/08/03 05:42:52;;;;;;;12.15;8.52;;;;;;;;;;5006597;28;20029;-78
2021/08/03 05:45:18;;;;;;;15.02;10.90;;;;;;;;;;5024299;28;20037;-79
2021/08/03 05:47:43;;;;;;;15.65;11.75;;;;;;;;;;5028082;28;20040;-79
2021/08/03 05:50:09;;;;;;;17.42;14.13;;;;;;;;;;5028976;28;20044;-79
2021/08/03 05:52:35;;;;;;;19.55;14.18;;;;;;;;;;4997774;28;20075;-79
2021/08/03 05:55:01;;;;;;;21.48;15.15;;;;;;;;;;5034261;28;20118;-79
2021/08/03 05:57:28;;;;;;;18.02;14.80;;;;;;;;;;5028221;28;20431;-79
2021/08/03 05:59:53;;;;;;;23.13;15.80;;;;;;;;;;5033284;28;20028;-79
2021/08/03 06:02:19;;;;;;;21.73;16.13;;;;;;;;;;5032519;28;20029;-79
2021/08/03 06:04:44;;;;;;;20.83;16.15;;;;;;;;;;5026561;28;20033;-79
2021/08/03 06:07:11;;;;;;;20.10;15.52;;;;;;;;;;5021380;28;20030;-79
2021/08/03 06:09:37;;;;;;;20.23;15.95;;;;;;;;;;5035615;28;20029;-79
2021/08/03 06:12:03;;;;;;;19.40;15.23;;;;;;;;;;4994181;28;20030;-79
2021/08/03 06:14:35;;;;;;;19.77;15.10;;;;;;;;;;5030440;28;20029;-79
2021/08/03 06:17:04;;;;;;;19.57;14.23;;;;;;;;;;5020341;28;20037;-79
2021/08/03 06:19:33;;;;;;;18.45;14.07;;;;;;;;;;5028816;28;20353;-79
2021/08/03 06:21:59;;;;;;;18.20;14.35;;;;;;;;;;5024605;28;20109;-79
2021/08/03 06:24:28;;;;;;;17.75;14.13;;;;;;;;;;5024182;28;20117;-79
2021/08/03 06:26:55;;;;;;;17.17;14.02;;;;;;;;;;5030231;28;20468;-79
2021/08/03 06:29:24;;;;;;;19.35;14.52;;;;;;;;;;5022162;28;20087;-79
2021/08/03 06:31:50;;;;;;;17.83;13.40;;;;;;;;;;5026008;28;20173;-79
2021/08/03 06:34:16;;;;;;;20.67;15.85;;;;;;;;;;5009089;28;20033;-79
2021/08/03 06:36:42;;;;;;;21.92;16.27;;;;;;;;;;5017024;28;20033;-79
2021/08/03 06:39:07;;;;;;;19.92;15.45;;;;;;;;;;4995348;28;20036;-79
2021/08/03 06:41:38;;;;;;;18.33;15.15;;;;;;;;;;5026963;28;20551;-79
2021/08/03 06:44:21;;;;;;;19.05;15.23;;;;;;;;;;5023467;28;20172;-79
2021/08/03 06:46:52;;;;;;;23.85;17.20;;;;;;;;;;5028450;28;20034;-79
2021/08/03 06:49:18;;;;;;;20.02;16.75;;;;;;;;;;5028222;28;20504;-79
2021/08/03 06:51:44;;;;;;;19.42;16.67;;;;;;;;;;5027969;28;20039;-79
2021/08/03 06:54:11;;;;;;;20.45;18.17;;;;;;;;;;5026757;28;20022;-79
2021/08/03 06:57:01;;;;;;;25.50;18.13;;;;;;;;;;5008508;28;20042;-79
2021/08/03 06:59:30;;;;;;;19.60;16.52;;;;;;;;;;5012036;28;20381;-79
2021/08/03 07:02:03;;;;;;;23.33;17.25;;;;;;;;;;5006706;28;20037;-79
2021/08/03 07:04:48;;;;;;;23.33;18.15;;;;;;;;;;5001987;28;20112;-79
2021/08/03 07:07:14;;;;;;;20.45;16.88;;;;;;;;;;5008325;28;20021;-79
2021/08/03 07:09:43;;;;;;;20.92;17.75;;;;;;;;;;5007861;28;20515;-79
2021/08/03 07:12:10;;;;;;;21.83;17.88;;;;;;;;;;5013310;28;20025;-79
2021/08/03 07:14:37;;;;;;;23.20;18.30;;;;;;;;;;5007151;28;20109;-79
2021/08/03 07:17:05;;;;;;;19.15;16.15;;;;;;;;;;5009399;28;20021;-79
2021/08/03 07:19:32;;;;;;;20.00;16.15;;;;;;;;;;5012936;28;20037;-79
2021/08/03 07:21:58;;;;;;;19.38;15.27;;;;;;;;;;5011325;28;20076;-79
2021/08/03 07:24:25;;;;;;;18.30;15.18;;;;;;;;;;5011358;28;20501;-79
2021/08/03 07:26:50;;;;;;;23.40;16.52;;;;;;;;;;5005531;28;20118;-79
2021/08/03 07:29:16;;;;;;;17.50;14.85;;;;;;;;;;5010570;28;20137;-79
2021/08/03 07:31:42;;;;;;;19.38;15.52;;;;;;;;;;5000053;28;20112;-79
2021/08/03 07:34:08;;;;;;;19.40;15.27;;;;;;;;;;5005892;28;20490;-79
2021/08/03 07:36:36;;;;;;;20.70;15.27;;;;;;;;;;4996130;28;20169;-79
2021/08/03 07:39:04;;;;;;;18.60;14.82;;;;;;;;;;5008635;28;20478;-79
2021/08/03 07:41:31;;;;;;;20.88;15.68;;;;;;;;;;5004546;28;20034;-79
2021/08/03 07:43:56;;;;;;;20.42;16.90;;;;;;;;;;5002066;28;20030;-79
2021/08/03 07:46:22;;;;;;;19.00;14.50;;;;;;;;;;5010382;28;20029;-79
2021/08/03 07:48:51;;;;;;;19.65;16.20;;;;;;;;;;5006752;28;20026;-79
2021/08/03 07:51:20;;;;;;;18.45;15.50;;;;;;;;;;5011207;28;20125;-79
2021/08/03 07:53:47;;;;;;;22.73;16.23;;;;;;;;;;5003441;28;20041;-79
2021/08/03 07:56:16;;;;;;;21.40;16.75;;;;;;;;;;5027042;28;20048;-79
2021/08/03 07:58:42;;;;;;;18.00;15.73;;;;;;;;;;5009688;28;20104;-79
2021/08/03 08:01:08;;;;;;;17.60;14.18;;;;;;;;;;5030522;28;20424;-78
2021/08/03 08:03:34;;;;;;;17.42;14.43;;;;;;;;;;5028414;28;20091;-79
2021/08/03 08:06:01;;;;;;;14.88;12.55;;;;;;;;;;5032646;28;20021;-79
2021/08/03 08:08:26;;;;;;;14.35;11.27;;;;;;;;;;5030435;28;20037;-79
2021/08/03 08:10:52;;;;;;;14.77;11.07;;;;;;;;;;5022647;28;20809;-79
2021/08/03 08:13:17;;;;;;;14.80;10.60;;;;;;;;;;5023896;28;20036;-79
2021/08/03 08:15:43;;;;;;;11.27;9.18;;;;;;;;;;5022959;28;20067;-79
2021/08/03 08:18:09;;;;;;;11.13;9.07;;;;;;;;;;5022361;28;20582;-79
2021/08/03 08:20:45;;;;;;;9.20;8.10;;;;;;;;;;5007740;28;20094;-79
2021/08/03 08:23:12;;;;;;;8.80;7.85;;;;;;;;;;5023342;28;20390;-79
2021/08/03 08:25:38;;;;;;;11.02;8.15;;;;;;;;;;5019404;28;20041;-79
2021/08/03 08:28:05;;;;;;;11.25;7.90;;;;;;;;;;5024521;28;20034;-79
2021/08/03 08:30:31;;;;;;;11.43;8.15;;;;;;;;;;5016710;28;20092;-80
2021/08/03 08:32:56;;;;;;;10.45;8.63;;;;;;;;;;5008654;28;20765;-80
2021/08/03 08:35:22;;;;;;;11.25;8.10;;;;;;;;;;5007189;28;20075;-79
2021/08/03 08:37:47;;;;;;;12.23;9.35;;;;;;;;;;5026389;28;20041;-80
2021/08/03 08:40:16;;;;;;;10.40;8.80;;;;;;;;;;5021988;28;20040;-80
2021/08/03 08:42:42;;;;;;;12.40;9.75;;;;;;;;;;4997016;28;20088;-79
2021/08/03 08:45:08;;;;;;;11.13;9.35;;;;;;;;;;5016498;28;20541;-79
2021/08/03 08:47:35;;;;;;;14.70;10.63;;;;;;;;;;5007035;28;20044;-79
2021/08/03 08:50:05;;;;;;;14.98;10.77;;;;;;;;;;5023379;28;20021;-79
2021/08/03 08:52:33;;;;;;;15.88;10.88;;;;;;;;;;5024709;28;20550;-79
2021/08/03 08:54:59;;;;;;;15.55;11.00;;;;;;;;;;5029477;28;20041;-79
2021/08/03 08:57:24;;;;;;;15.65;12.23;;;;;;;;;;5023535;28;20556;-80
2021/08/03 08:59:50;;;;;;;15.13;11.90;;;;;;;;;;5021480;28;20069;-80
2021/08/03 09:02:15;;;;;;;13.32;10.93;;;;;;;;;;5023018;28;20041;-80
2021/08/03 09:04:44;;;;;;;17.77;11.98;;;;;;;;;;5028083;28;20029;-80
2021/08/03 09:07:10;;;;;;;14.68;12.40;;;;;;;;;;5025489;28;20042;-80
2021/08/03 09:09:46;;;;;;;14.55;12.50;;;;;;;;;;5020280;28;20576;-80
2021/08/03 09:12:13;;;;;;;14.35;12.05;;;;;;;;;;5026484;28;20405;-80
2021/08/03 09:14:41;;;;;;;15.73;11.98;;;;;;;;;;5009944;28;20065;-80
2021/08/03 09:17:07;;;;;;;14.38;11.20;;;;;;;;;;5024650;28;20025;-80
2021/08/03 09:19:41;;;;;;;14.13;11.23;;;;;;;;;;5023914;28;20030;-80
2021/08/03 09:22:19;;;;;;;13.27;10.93;;;;;;;;;;4985980;28;20097;-80
2021/08/03 09:24:48;;;;;;;13.18;10.30;;;;;;;;;;5024226;28;20037;-80
2021/08/03 09:27:44;;;;;;;13.85;9.80;;;;;;;;;;5025353;28;20037;-79
2021/08/03 09:30:31;;;;;;;11.43;8.00;;;;;;;;;;5020843;28;20026;-80
2021/08/03 09:32:57;;;;;;;12.23;8.68;;;;;;;;;;5020682;28;20571;-80
2021/08/03 09:35:24;;;;;;;10.75;8.32;;;;;;;;;;5027075;28;20037;-80
2021/08/03 09:37:51;;;;;;;12.18;8.60;;;;;;;;;;5039487;28;20133;-80
2021/08/03 09:40:16;;;;;;;11.98;9.10;;;;;;;;;;5024636;28;20044;-80
2021/08/03 09:42:41;;;;;;;11.13;8.68;;;;;;;;;;5019487;28;20034;-80
2021/08/03 09:45:08;;;;;;;11.38;8.57;;;;;;;;;;5024185;28;20048;-80
2021/08/03 09:47:36;;;;;;;10.45;9.35;;;;;;;;;;5013710;28;20037;-80
2021/08/03 09:50:06;;;;;;;12.20;9.77;;;;;;;;;;5006662;28;20029;-80
2021/08/03 09:52:36;;;;;;;13.60;9.30;;;;;;;;;;5023116;28;20473;-80
2021/08/03 09:55:19;;;;;;;13.02;9.73;;;;;;;;;;5024341;28;20116;-80
2021/08/03 09:57:45;;;;;;;;;;;;;;;;;;5017967;28;20042;-80
2021/08/03 10:00:28;;;;;;;10.25;7.93;;;;;;;;;;5022208;28;20027;-80
2021/08/03 10:02:54;;;;;;;9.70;7.38;;;;;;;;;;5017071;28;20029;-80
2021/08/03 10:05:21;;;;;;;9.15;7.38;;;;;;;;;;5021455;28;20064;-80
2021/08/03 10:07:47;;;;;;;10.63;8.15;;;;;;;;;;5022628;28;20144;-81
2021/08/03 10:10:13;;;;;;;8.73;7.47;;;;;;;;;;5023931;28;20175;-81
2021/08/03 10:12:39;;;;;;;10.73;8.35;;;;;;;;;;5017841;28;20034;-80
2021/08/03 10:15:08;;;;;;;9.70;8.40;;;;;;;;;;5023299;28;20389;-80
2021/08/03 10:17:34;;;;;;;13.32;9.35;;;;;;;;;;5027309;28;20029;-81
2021/08/03 10:20:00;;;;;;;11.73;9.90;;;;;;;;;;5022880;28;20052;-81
2021/08/03 10:22:28;;;;;;;12.70;11.20;;;;;;;;;;5027210;28;20068;-80
2021/08/03 10:25:10;;;;;;;14.52;11.18;;;;;;;;;;5025265;28;20029;-80
2021/08/03 10:27:43;;;;;;;15.23;11.45;;;;;;;;;;5021776;28;20128;-80
2021/08/03 10:30:29;;;;;;;;;;;;;;;;;;5019708;28;20038;-80
2021/08/03 10:33:06;;;;;;;12.45;10.82;;;;;;;;;;5018204;28;19924;-80
2021/08/03 10:35:52;;;;;;;14.43;11.55;;;;;;;;;;5037682;28;20045;-80
2021/08/03 10:38:28;;;;;;;15.20;11.70;;;;;;;;;;5023705;28;20021;-81
2021/08/03 10:40:57;;;;;;;14.25;11.00;;;;;;;;;;5020183;28;20022;-81
2021/08/03 10:43:36;;;;;;;16.02;12.90;;;;;;;;;;5021459;28;20039;-81
2021/08/03 10:46:08;;;;;;;14.45;12.50;;;;;;;;;;5017333;28;20030;-81
2021/08/03 10:48:39;;;;;;;16.70;13.50;;;;;;;;;;5021240;28;20036;-81
2021/08/03 10:51:16;;;;;;;15.52;13.35;;;;;;;;;;5019491;28;20037;-80
2021/08/03 10:53:51;;;;;;;16.05;13.45;;;;;;;;;;5024750;28;20846;-81
2021/08/03 10:56:16;;;;;;;15.70;13.90;;;;;;;;;;5016720;28;20433;-81
2021/08/03 10:58:42;;;;;;;17.52;13.88;;;;;;;;;;5023297;28;20048;-81
2021/08/03 11:01:08;;;;;;;14.43;12.82;;;;;;;;;;5023576;28;20029;-80
2021/08/03 11:03:36;;;;;;;15.98;14.35;;;;;;;;;;5023299;28;20044;-80
2021/08/03 11:06:10;;;;;;;16.95;13.75;;;;;;;;;;5021777;28;20160;-81
2021/08/03 11:08:43;;;;;;;14.50;12.98;;;;;;;;;;5022251;28;20089;-81
2021/08/03 11:11:20;;;;;;;14.93;12.32;;;;;;;;;;5027741;28;20461;-81
2021/08/03 11:13:54;;;;;;;14.38;12.50;;;;;;;;;;5029858;28;20033;-81
2021/08/03 11:16:19;;;;;;;14.13;11.77;;;;;;;;;;5024595;28;20473;-80
2021/08/03 11:18:53;;;;;;;13.23;11.82;;;;;;;;;;5023727;28;20028;-81
2021/08/03 11:21:21;;;;;;;14.40;11.13;;;;;;;;;;5031909;28;20030;-81
2021/08/03 11:24:09;;;;;;;14.30;11.85;;;;;;;;;;5003671;28;20844;-82
2021/08/03 11:26:39;;;;;;;16.63;11.63;;;;;;;;;;5023123;28;20036;-81
2021/08/03 11:29:09;;;;;;;18.92;12.05;;;;;;;;;;5025353;28;20033;-81
2021/08/03 11:31:42;;;;;;;14.23;12.13;;;;;;;;;;5027824;28;20065;-81
2021/08/03 11:34:08;;;;;;;14.93;11.90;;;;;;;;;;5016493;28;20029;-81
2021/08/03 11:36:36;;;;;;;15.85;12.27;;;;;;;;;;5027181;28;20961;-82
2021/08/03 11:39:18;;;;;;;12.98;11.50;;;;;;;;;;5025033;28;20025;-81
2021/08/03 11:41:48;;;;;;;14.27;12.77;;;;;;;;;;5018246;28;20603;-81
2021/08/03 11:44:17;;;;;;;12.55;11.18;;;;;;;;;;5021279;28;20033;-81
2021/08/03 11:46:44;;;;;;;15.30;12.60;;;;;;;;;;5022779;28;20049;-81
2021/08/03 11:49:10;;;;;;;16.45;12.27;;;;;;;;;;5024409;28;20488;-80
2021/08/03 11:51:46;;;;;;;13.57;12.07;;;;;;;;;;5027676;28;20138;-81
2021/08/03 11:54:18;;;;;;;13.32;11.15;;;;;;;;;;5024673;28;20037;-81
2021/08/03 11:56:44;;;;;;;12.85;10.52;;;;;;;;;;5017463;28;20044;-82
2021/08/03 11:59:13;;;;;;;12.52;10.13;;;;;;;;;;5009026;28;20046;-82
2021/08/03 12:01:49;;;;;;;14.85;12.68;;;;;;;;;;5019136;28;20053;-81
2021/08/03 12:04:17;;;;;;;14.30;11.60;;;;;;;;;;4996939;28;20057;-80
2021/08/03 12:06:43;;;;;;;11.68;10.45;;;;;;;;;;5018940;28;20034;-81
2021/08/03 12:09:10;;;;;;;13.68;10.52;;;;;;;;;;5000909;28;20034;-81
2021/08/03 12:11:35;;;;;;;12.73;9.88;;;;;;;;;;5004697;28;20061;-81
2021/08/03 12:14:09;;;;;;;17.35;11.00;;;;;;;;;;5029031;28;20518;-81
2021/08/03 12:16:35;;;;;;;15.32;12.57;;;;;;;;;;5024396;28;20485;-81
2021/08/03 12:19:00;;;;;;;13.32;11.55;;;;;;;;;;5011992;28;20035;-81
2021/08/03 12:21:38;;;;;;;12.88;10.43;;;;;;;;;;5027325;28;20041;-81
2021/08/03 12:24:08;;;;;;;13.55;10.80;;;;;;;;;;5020772;28;20029;-81
2021/08/03 12:26:35;;;;;;;12.88;9.20;;;;;;;;;;5012107;28;20179;-81
2021/08/03 12:29:02;;;;;;;12.45;11.02;;;;;;;;;;5016780;28;20112;-82
2021/08/03 12:31:37;;;;;;;10.57;9.35;;;;;;;;;;5023791;28;20099;-82
2021/08/03 12:34:17;;;;;;;12.35;11.00;;;;;;;;;;5029730;28;20581;-82
2021/08/03 12:36:56;;;;;;;12.70;10.70;;;;;;;;;;5031275;28;20025;-81
2021/08/03 12:39:27;;;;;;;11.07;9.88;;;;;;;;;;5034796;28;20034;-82
2021/08/03 12:42:32;;;;;;;11.68;10.10;;;;;;;;;;5029968;28;20071;-82
2021/08/03 12:45:10;;;;;;;13.40;10.68;;;;;;;;;;5022298;28;20350;-81
2021/08/03 12:47:35;;;;;;;12.18;10.10;;;;;;;;;;5024448;28;20026;-81
2021/08/03 12:50:07;;;;;;;12.27;10.95;;;;;;;;;;5028173;28;20032;-81
2021/08/03 12:52:33;;;;;;;14.00;12.48;;;;;;;;;;5024354;28;20041;-81
2021/08/03 12:55:11;;;;;;;14.93;11.75;;;;;;;;;;5023228;28;20053;-81
2021/08/03 12:57:42;;;;;;;13.10;11.60;;;;;;;;;;5021188;28;20029;-81
2021/08/03 13:00:34;;;;;;;14.07;12.05;;;;;;;;;;5029967;28;20021;-82
2021/08/03 13:03:01;;;;;;;13.98;11.32;;;;;;;;;;5031786;28;21651;-81
2021/08/03 13:05:27;;;;;;;14.48;12.88;;;;;;;;;;5030541;28;20501;-82
2021/08/03 13:07:53;;;;;;;14.45;12.23;;;;;;;;;;5025375;28;20033;-81
2021/08/03 13:10:19;;;;;;;15.35;12.05;;;;;;;;;;5026517;28;20091;-81
2021/08/03 13:12:44;;;;;;;13.35;11.20;;;;;;;;;;5010205;28;20037;-81
2021/08/03 13:15:11;;;;;;;15.23;12.35;;;;;;;;;;5032851;28;20125;-82
2021/08/03 13:17:36;;;;;;;17.95;12.85;;;;;;;;;;5015799;28;20083;-82
2021/08/03 13:20:03;;;;;;;15.15;12.13;;;;;;;;;;5031868;28;20029;-81
2021/08/03 13:22:28;;;;;;;15.65;12.15;;;;;;;;;;5030789;28;20030;-81
2021/08/03 13:24:53;;;;;;;15.52;13.73;;;;;;;;;;5012276;28;20029;-81
2021/08/03 13:27:19;;;;;;;16.70;14.00;;;;;;;;;;4997928;28;20037;-81
2021/08/03 13:29:44;;;;;;;15.40;13.80;;;;;;;;;;5018387;28;20034;-82
2021/08/03 13:32:10;;;;;;;14.05;12.35;;;;;;;;;;5015298;28;20033;-81
2021/08/03 13:34:35;;;;;;;14.00;12.18;;;;;;;;;;5008771;28;20593;-81
2021/08/03 13:37:00;;;;;;;13.77;11.45;;;;;;;;;;5001457;28;20033;-82
2021/08/03 13:39:26;;;;;;;13.90;12.40;;;;;;;;;;5029789;28;20037;-81
2021/08/03 13:41:51;;;;;;;13.55;12.13;;;;;;;;;;5020019;28;20045;-82
2021/08/03 13:44:17;;;;;;;15.07;12.00;;;;;;;;;;5019598;28;20052;-81
2021/08/03 13:46:43;;;;;;;18.30;13.85;;;;;;;;;;5024260;28;20113;-82
2021/08/03 13:49:09;;;;;;;18.25;14.10;;;;;;;;;;4999918;28;20133;-81
2021/08/03 13:51:34;;;;;;;14.70;13.07;;;;;;;;;;5010910;28;20060;-81
2021/08/03 13:54:00;;;;;;;17.58;14.95;;;;;;;;;;5010710;28;20110;-81
2021/08/03 13:56:26;;;;;;;16.95;14.55;;;;;;;;;;5027190;28;20839;-81
2021/08/03 13:58:51;;;;;;;16.80;13.20;;;;;;;;;;5028744;28;20850;-81
2021/08/03 14:01:17;;;;;;;17.00;13.52;;;;;;;;;;5012529;28;20038;-81
2021/08/03 14:03:42;;;;;;;17.67;14.60;;;;;;;;;;5007270;28;20394;-81
2021/08/03 14:06:08;;;;;;;18.58;15.18;;;;;;;;;;5024647;28;20072;-82
2021/08/03 14:08:34;;;;;;;19.08;14.23;;;;;;;;;;5026265;28;20080;-81
2021/08/03 14:10:59;;;;;;;18.50;15.05;;;;;;;;;;5028290;28;20507;-81
2021/08/03 14:13:25;;;;;;;16.42;14.65;;;;;;;;;;5009898;28;20129;-82
2021/08/03 14:15:52;;;;;;;18.77;16.13;;;;;;;;;;5034271;28;20405;-81
2021/08/03 14:18:19;;;;;;;21.40;16.15;;;;;;;;;;5026118;28;20977;-81
2021/08/03 14:20:44;;;;;;;17.63;14.82;;;;;;;;;;5025177;28;20033;-81
2021/08/03 14:23:09;;;;;;;16.73;14.52;;;;;;;;;;5024805;28;20037;-82
2021/08/03 14:25:35;;;;;;;12.93;11.15;;;;;;;;;;5005545;28;20187;-81
2021/08/03 14:28:04;;;;;;;16.05;14.32;;;;;;;;;;5025633;28;20025;-81
2021/08/03 14:30:32;;;;;;;18.70;16.67;;;;;;;;;;5019763;28;20457;-81
2021/08/03 14:32:57;;;;;;;17.17;14.07;;;;;;;;;;5032545;28;20021;-81
2021/08/03 14:35:23;;;;;;;16.60;13.80;;;;;;;;;;5008759;28;20400;-82
2021/08/03 14:37:49;;;;;;;21.65;14.68;;;;;;;;;;5022347;28;20043;-81